sensor_id;sensor_type;location;lat;lon;timestamp;P1;durP1;ratioP1;P2;durP2;ratioP2
53875;SDS011;39789;53.216;5.624;2023-02-19T00:01:10;21.50;;;8.65;;
53875;SDS011;39789;53.216;5.624;2023-02-19T00:03:38;23.17;;;8.77;;
53875;SDS011;39789;53.216;5.624;2023-02-19T00:06:05;21.52;;;8.57;;
53875;SDS011;39789;53.216;5.624;2023-02-19T00:08:33;20.52;;;8.30;;
53875;SDS011;39789;53.216;5.624;2023-02-19T00:11:03;19.45;;;8.15;;
53875;SDS011;39789;53.216;5.624;2023-02-19T00:13:34;15.23;;;7.85;;
53875;SDS011;39789;53.216;5.624;2023-02-19T00:16:04;17.50;;;8.43;;
53875;SDS011;39789;53.216;5.624;2023-02-19T00:18:30;17.63;;;8.15;;
53875;SDS011;39789;53.216;5.624;2023-02-19T00:20:56;20.65;;;7.47;;
53875;SDS011;39789;53.216;5.624;2023-02-19T00:23:22;15.38;;;7.70;;
53875;SDS011;39789;53.216;5.624;2023-02-19T00:25:47;16.90;;;7.43;;
53875;SDS011;39789;53.216;5.624;2023-02-19T00:28:13;18.83;;;7.75;;
53875;SDS011;39789;53.216;5.624;2023-02-19T00:30:38;18.10;;;6.55;;
53875;SDS011;39789;53.216;5.624;2023-02-19T00:33:04;15.45;;;6.65;;
53875;SDS011;39789;53.216;5.624;2023-02-19T00:35:32;14.45;;;6.25;;
53875;SDS011;39789;53.216;5.624;2023-02-19T00:37:58;16.40;;;6.93;;
53875;SDS011;39789;53.216;5.624;2023-02-19T00:40:24;15.10;;;5.65;;
53875;SDS011;39789;53.216;5.624;2023-02-19T00:42:50;15.02;;;5.72;;
53875;SDS011;39789;53.216;5.624;2023-02-19T00:45:16;20.98;;;6.53;;
53875;SDS011;39789;53.216;5.624;2023-02-19T00:47:41;17.88;;;6.63;;
53875;SDS011;39789;53.216;5.624;2023-02-19T00:50:07;18.13;;;6.50;;
53875;SDS011;39789;53.216;5.624;2023-02-19T00:52:33;14.98;;;5.25;;
53875;SDS011;39789;53.216;5.624;2023-02-19T00:54:58;11.93;;;5.22;;
53875;SDS011;39789;53.216;5.624;2023-02-19T00:57:24;14.32;;;4.93;;
53875;SDS011;39789;53.216;5.624;2023-02-19T00:59:50;9.60;;;3.78;;
53875;SDS011;39789;53.216;5.624;2023-02-19T01:02:15;16.95;;;4.93;;
53875;SDS011;39789;53.216;5.624;2023-02-19T01:04:41;13.23;;;3.85;;
53875;SDS011;39789;53.216;5.624;2023-02-19T01:07:06;16.65;;;4.18;;
53875;SDS011;39789;53.216;5.624;2023-02-19T01:09:32;18.35;;;4.80;;
53875;SDS011;39789;53.216;5.624;2023-02-19T01:11:57;10.68;;;4.25;;
53875;SDS011;39789;53.216;5.624;2023-02-19T01:14:23;13.15;;;4.20;;
53875;SDS011;39789;53.216;5.624;2023-02-19T01:16:49;12.32;;;4.10;;
53875;SDS011;39789;53.216;5.624;2023-02-19T01:19:14;13.68;;;4.25;;
53875;SDS011;39789;53.216;5.624;2023-02-19T01:21:40;17.15;;;4.53;;
53875;SDS011;39789;53.216;5.624;2023-02-19T01:24:06;13.82;;;4.80;;
53875;SDS011;39789;53.216;5.624;2023-02-19T01:26:32;18.45;;;4.55;;
53875;SDS011;39789;53.216;5.624;2023-02-19T01:28:58;18.23;;;5.97;;
53875;SDS011;39789;53.216;5.624;2023-02-19T01:31:25;16.08;;;5.43;;
53875;SDS011;39789;53.216;5.624;2023-02-19T01:33:52;17.48;;;4.82;;
53875;SDS011;39789;53.216;5.624;2023-02-19T01:36:23;11.07;;;4.65;;
53875;SDS011;39789;53.216;5.624;2023-02-19T01:38:49;14.40;;;5.60;;
53875;SDS011;39789;53.216;5.624;2023-02-19T01:41:16;11.82;;;5.40;;
53875;SDS011;39789;53.216;5.624;2023-02-19T01:44:00;16.63;;;6.30;;
53875;SDS011;39789;53.216;5.624;2023-02-19T01:46:52;17.30;;;5.32;;
53875;SDS011;39789;53.216;5.624;2023-02-19T01:51:54;20.10;;;7.40;;
53875;SDS011;39789;53.216;5.624;2023-02-19T01:54:25;18.15;;;7.70;;
53875;SDS011;39789;53.216;5.624;2023-02-19T01:56:54;18.48;;;6.93;;
53875;SDS011;39789;53.216;5.624;2023-02-19T01:59:21;19.98;;;8.43;;
53875;SDS011;39789;53.216;5.624;2023-02-19T02:01:47;22.40;;;9.18;;
53875;SDS011;39789;53.216;5.624;2023-02-19T02:04:13;23.48;;;7.60;;
53875;SDS011;39789;53.216;5.624;2023-02-19T02:06:50;28.30;;;10.35;;
53875;SDS011;39789;53.216;5.624;2023-02-19T02:09:19;25.23;;;10.57;;
53875;SDS011;39789;53.216;5.624;2023-02-19T02:12:05;25.80;;;9.88;;
53875;SDS011;39789;53.216;5.624;2023-02-19T02:14:33;30.70;;;11.18;;
53875;SDS011;39789;53.216;5.624;2023-02-19T02:18:04;27.10;;;10.48;;
53875;SDS011;39789;53.216;5.624;2023-02-19T02:20:21;29.45;;;11.57;;
53875;SDS011;39789;53.216;5.624;2023-02-19T02:23:14;28.17;;;11.40;;
53875;SDS011;39789;53.216;5.624;2023-02-19T02:31:31;29.33;;;10.77;;
53875;SDS011;39789;53.216;5.624;2023-02-19T02:34:29;26.23;;;11.75;;
53875;SDS011;39789;53.216;5.624;2023-02-19T02:37:01;26.25;;;11.82;;
53875;SDS011;39789;53.216;5.624;2023-02-19T02:39:29;25.73;;;13.30;;
53875;SDS011;39789;53.216;5.624;2023-02-19T02:41:57;28.00;;;13.30;;
53875;SDS011;39789;53.216;5.624;2023-02-19T02:44:42;39.65;;;12.82;;
53875;SDS011;39789;53.216;5.624;2023-02-19T02:47:28;31.80;;;12.52;;
53875;SDS011;39789;53.216;5.624;2023-02-19T02:50:10;28.55;;;13.35;;
53875;SDS011;39789;53.216;5.624;2023-02-19T02:52:48;28.25;;;11.43;;
53875;SDS011;39789;53.216;5.624;2023-02-19T02:55:37;34.70;;;12.68;;
53875;SDS011;39789;53.216;5.624;2023-02-19T02:58:07;18.05;;;9.32;;
53875;SDS011;39789;53.216;5.624;2023-02-19T03:00:33;10.27;;;6.28;;
53875;SDS011;39789;53.216;5.624;2023-02-19T03:03:21;10.05;;;6.30;;
53875;SDS011;39789;53.216;5.624;2023-02-19T03:05:49;9.07;;;6.70;;
53875;SDS011;39789;53.216;5.624;2023-02-19T03:08:24;9.32;;;6.88;;
53875;SDS011;39789;53.216;5.624;2023-02-19T03:11:00;9.85;;;7.35;;
53875;SDS011;39789;53.216;5.624;2023-02-19T03:13:47;7.40;;;5.68;;
53875;SDS011;39789;53.216;5.624;2023-02-19T03:16:36;7.88;;;5.55;;
53875;SDS011;39789;53.216;5.624;2023-02-19T03:19:24;6.28;;;4.75;;
53875;SDS011;39789;53.216;5.624;2023-02-19T03:21:53;6.53;;;4.53;;
53875;SDS011;39789;53.216;5.624;2023-02-19T03:24:28;7.90;;;4.20;;
53875;SDS011;39789;53.216;5.624;2023-02-19T03:27:17;8.68;;;4.78;;
53875;SDS011;39789;53.216;5.624;2023-02-19T03:29:45;8.50;;;4.30;;
53875;SDS011;39789;53.216;5.624;2023-02-19T03:32:14;9.02;;;4.07;;
53875;SDS011;39789;53.216;5.624;2023-02-19T03:34:50;8.38;;;4.95;;
53875;SDS011;39789;53.216;5.624;2023-02-19T03:37:24;10.57;;;4.80;;
53875;SDS011;39789;53.216;5.624;2023-02-19T03:39:56;9.48;;;5.00;;
53875;SDS011;39789;53.216;5.624;2023-02-19T03:42:25;7.55;;;4.38;;
53875;SDS011;39789;53.216;5.624;2023-02-19T03:45:35;7.25;;;4.60;;
53875;SDS011;39789;53.216;5.624;2023-02-19T03:50:51;8.38;;;4.00;;
53875;SDS011;39789;53.216;5.624;2023-02-19T03:58:50;12.60;;;3.45;;
53875;SDS011;39789;53.216;5.624;2023-02-19T04:01:40;6.68;;;3.92;;
53875;SDS011;39789;53.216;5.624;2023-02-19T04:04:20;4.40;;;2.80;;
53875;SDS011;39789;53.216;5.624;2023-02-19T04:06:53;4.43;;;2.50;;
53875;SDS011;39789;53.216;5.624;2023-02-19T04:09:21;3.40;;;2.47;;
53875;SDS011;39789;53.216;5.624;2023-02-19T04:11:49;5.60;;;2.92;;
53875;SDS011;39789;53.216;5.624;2023-02-19T04:14:20;5.18;;;2.70;;
53875;SDS011;39789;53.216;5.624;2023-02-19T04:16:50;6.70;;;3.13;;
53875;SDS011;39789;53.216;5.624;2023-02-19T04:19:22;6.88;;;3.42;;
53875;SDS011;39789;53.216;5.624;2023-02-19T04:21:50;8.05;;;4.60;;
53875;SDS011;39789;53.216;5.624;2023-02-19T04:24:20;7.60;;;3.72;;
53875;SDS011;39789;53.216;5.624;2023-02-19T04:26:50;7.28;;;3.42;;
53875;SDS011;39789;53.216;5.624;2023-02-19T04:29:17;7.80;;;4.90;;
53875;SDS011;39789;53.216;5.624;2023-02-19T04:31:42;8.38;;;4.75;;
53875;SDS011;39789;53.216;5.624;2023-02-19T04:34:08;9.38;;;4.93;;
53875;SDS011;39789;53.216;5.624;2023-02-19T04:36:33;6.10;;;4.10;;
53875;SDS011;39789;53.216;5.624;2023-02-19T04:38:59;8.57;;;5.28;;
53875;SDS011;39789;53.216;5.624;2023-02-19T04:41:24;7.07;;;4.75;;
53875;SDS011;39789;53.216;5.624;2023-02-19T04:43:50;8.02;;;5.00;;
53875;SDS011;39789;53.216;5.624;2023-02-19T04:46:16;8.52;;;5.22;;
53875;SDS011;39789;53.216;5.624;2023-02-19T04:48:41;6.85;;;3.88;;
53875;SDS011;39789;53.216;5.624;2023-02-19T04:51:07;8.90;;;4.10;;
53875;SDS011;39789;53.216;5.624;2023-02-19T04:53:34;5.65;;;3.45;;
53875;SDS011;39789;53.216;5.624;2023-02-19T04:56:07;4.95;;;3.33;;
53875;SDS011;39789;53.216;5.624;2023-02-19T04:58:34;7.35;;;4.05;;
53875;SDS011;39789;53.216;5.624;2023-02-19T05:01:00;6.68;;;4.03;;
53875;SDS011;39789;53.216;5.624;2023-02-19T05:03:26;8.27;;;4.00;;
53875;SDS011;39789;53.216;5.624;2023-02-19T05:05:51;4.70;;;2.90;;
53875;SDS011;39789;53.216;5.624;2023-02-19T05:08:17;4.55;;;2.50;;
53875;SDS011;39789;53.216;5.624;2023-02-19T05:10:42;4.57;;;2.40;;
53875;SDS011;39789;53.216;5.624;2023-02-19T05:13:08;4.15;;;1.80;;
53875;SDS011;39789;53.216;5.624;2023-02-19T05:15:33;4.45;;;1.70;;
53875;SDS011;39789;53.216;5.624;2023-02-19T05:17:59;2.63;;;1.70;;
53875;SDS011;39789;53.216;5.624;2023-02-19T05:20:25;3.17;;;1.77;;
53875;SDS011;39789;53.216;5.624;2023-02-19T05:22:50;2.40;;;1.75;;
53875;SDS011;39789;53.216;5.624;2023-02-19T05:25:16;3.40;;;1.95;;
53875;SDS011;39789;53.216;5.624;2023-02-19T05:27:41;4.03;;;2.25;;
53875;SDS011;39789;53.216;5.624;2023-02-19T05:30:07;4.35;;;1.80;;
53875;SDS011;39789;53.216;5.624;2023-02-19T05:32:34;5.07;;;2.30;;
53875;SDS011;39789;53.216;5.624;2023-02-19T05:35:00;4.00;;;2.33;;
53875;SDS011;39789;53.216;5.624;2023-02-19T05:37:25;4.85;;;2.17;;
53875;SDS011;39789;53.216;5.624;2023-02-19T05:39:51;5.40;;;2.30;;
53875;SDS011;39789;53.216;5.624;2023-02-19T05:42:17;2.70;;;2.13;;
53875;SDS011;39789;53.216;5.624;2023-02-19T05:44:42;3.17;;;2.10;;
53875;SDS011;39789;53.216;5.624;2023-02-19T05:47:08;4.93;;;2.33;;
53875;SDS011;39789;53.216;5.624;2023-02-19T05:49:34;4.10;;;2.22;;
53875;SDS011;39789;53.216;5.624;2023-02-19T05:51:59;4.03;;;1.95;;
53875;SDS011;39789;53.216;5.624;2023-02-19T05:54:26;7.65;;;2.53;;
53875;SDS011;39789;53.216;5.624;2023-02-19T05:56:53;3.58;;;2.30;;
53875;SDS011;39789;53.216;5.624;2023-02-19T05:59:20;4.25;;;2.10;;
53875;SDS011;39789;53.216;5.624;2023-02-19T06:01:48;5.35;;;2.58;;
53875;SDS011;39789;53.216;5.624;2023-02-19T06:04:15;2.53;;;2.03;;
53875;SDS011;39789;53.216;5.624;2023-02-19T06:06:43;2.92;;;2.20;;
53875;SDS011;39789;53.216;5.624;2023-02-19T06:09:10;5.55;;;2.28;;
53875;SDS011;39789;53.216;5.624;2023-02-19T06:11:36;2.55;;;2.20;;
53875;SDS011;39789;53.216;5.624;2023-02-19T06:14:03;5.47;;;2.63;;
53875;SDS011;39789;53.216;5.624;2023-02-19T06:16:28;5.63;;;2.20;;
53875;SDS011;39789;53.216;5.624;2023-02-19T06:18:56;3.83;;;1.80;;
53875;SDS011;39789;53.216;5.624;2023-02-19T06:21:22;4.55;;;2.63;;
53875;SDS011;39789;53.216;5.624;2023-02-19T06:23:47;3.70;;;2.30;;
53875;SDS011;39789;53.216;5.624;2023-02-19T06:26:14;3.78;;;2.17;;
53875;SDS011;39789;53.216;5.624;2023-02-19T06:28:45;4.15;;;2.00;;
53875;SDS011;39789;53.216;5.624;2023-02-19T06:31:12;3.33;;;1.58;;
53875;SDS011;39789;53.216;5.624;2023-02-19T06:33:38;3.20;;;2.00;;
53875;SDS011;39789;53.216;5.624;2023-02-19T06:36:05;4.28;;;1.30;;
53875;SDS011;39789;53.216;5.624;2023-02-19T06:38:34;2.05;;;0.80;;
53875;SDS011;39789;53.216;5.624;2023-02-19T06:41:00;1.25;;;0.90;;
53875;SDS011;39789;53.216;5.624;2023-02-19T06:43:27;0.75;;;0.75;;
53875;SDS011;39789;53.216;5.624;2023-02-19T06:45:53;0.55;;;0.50;;
53875;SDS011;39789;53.216;5.624;2023-02-19T06:48:21;0.50;;;0.32;;
53875;SDS011;39789;53.216;5.624;2023-02-19T06:50:47;0.47;;;0.40;;
53875;SDS011;39789;53.216;5.624;2023-02-19T06:53:12;0.55;;;0.50;;
53875;SDS011;39789;53.216;5.624;2023-02-19T06:55:38;0.93;;;0.50;;
53875;SDS011;39789;53.216;5.624;2023-02-19T06:58:04;0.65;;;0.65;;
53875;SDS011;39789;53.216;5.624;2023-02-19T07:00:31;2.22;;;0.80;;
53875;SDS011;39789;53.216;5.624;2023-02-19T07:02:57;1.33;;;0.73;;
53875;SDS011;39789;53.216;5.624;2023-02-19T07:05:23;0.45;;;0.43;;
53875;SDS011;39789;53.216;5.624;2023-02-19T07:07:48;0.65;;;0.50;;
53875;SDS011;39789;53.216;5.624;2023-02-19T07:10:14;2.40;;;0.70;;
53875;SDS011;39789;53.216;5.624;2023-02-19T07:12:40;0.50;;;0.50;;
53875;SDS011;39789;53.216;5.624;2023-02-19T07:15:06;3.22;;;1.15;;
53875;SDS011;39789;53.216;5.624;2023-02-19T07:17:32;0.65;;;0.65;;
53875;SDS011;39789;53.216;5.624;2023-02-19T07:19:58;1.17;;;0.50;;
53875;SDS011;39789;53.216;5.624;2023-02-19T07:22:24;0.60;;;0.60;;
53875;SDS011;39789;53.216;5.624;2023-02-19T07:24:49;0.85;;;0.60;;
53875;SDS011;39789;53.216;5.624;2023-02-19T07:27:15;0.50;;;0.50;;
53875;SDS011;39789;53.216;5.624;2023-02-19T07:29:41;1.83;;;0.93;;
53875;SDS011;39789;53.216;5.624;2023-02-19T07:32:06;0.90;;;0.90;;
53875;SDS011;39789;53.216;5.624;2023-02-19T07:34:32;0.90;;;0.90;;
53875;SDS011;39789;53.216;5.624;2023-02-19T07:36:57;2.55;;;1.48;;
53875;SDS011;39789;53.216;5.624;2023-02-19T07:39:23;3.28;;;1.00;;
53875;SDS011;39789;53.216;5.624;2023-02-19T07:41:48;3.55;;;1.45;;
53875;SDS011;39789;53.216;5.624;2023-02-19T07:44:14;3.58;;;1.10;;
53875;SDS011;39789;53.216;5.624;2023-02-19T07:46:41;2.97;;;0.95;;
53875;SDS011;39789;53.216;5.624;2023-02-19T07:49:07;2.03;;;1.50;;
53875;SDS011;39789;53.216;5.624;2023-02-19T07:51:33;2.38;;;1.67;;
53875;SDS011;39789;53.216;5.624;2023-02-19T07:53:58;1.38;;;1.27;;
53875;SDS011;39789;53.216;5.624;2023-02-19T07:56:24;4.18;;;1.70;;
53875;SDS011;39789;53.216;5.624;2023-02-19T07:58:50;1.50;;;1.40;;
53875;SDS011;39789;53.216;5.624;2023-02-19T08:01:16;1.38;;;1.27;;
53875;SDS011;39789;53.216;5.624;2023-02-19T08:04:05;4.80;;;2.03;;
53875;SDS011;39789;53.216;5.624;2023-02-19T08:06:31;1.92;;;1.42;;
53875;SDS011;39789;53.216;5.624;2023-02-19T08:08:56;1.50;;;1.40;;
53875;SDS011;39789;53.216;5.624;2023-02-19T08:11:22;3.80;;;1.52;;
53875;SDS011;39789;53.216;5.624;2023-02-19T08:14:06;1.83;;;1.50;;
53875;SDS011;39789;53.216;5.624;2023-02-19T08:16:32;2.95;;;1.40;;
53875;SDS011;39789;53.216;5.624;2023-02-19T08:18:57;3.60;;;1.77;;
53875;SDS011;39789;53.216;5.624;2023-02-19T08:21:23;6.32;;;1.60;;
53875;SDS011;39789;53.216;5.624;2023-02-19T08:23:49;3.38;;;1.40;;
53875;SDS011;39789;53.216;5.624;2023-02-19T08:26:14;1.38;;;1.27;;
53875;SDS011;39789;53.216;5.624;2023-02-19T08:28:41;2.85;;;1.23;;
53875;SDS011;39789;53.216;5.624;2023-02-19T08:31:07;2.10;;;1.20;;
53875;SDS011;39789;53.216;5.624;2023-02-19T08:33:33;2.28;;;1.40;;
53875;SDS011;39789;53.216;5.624;2023-02-19T08:36:03;1.58;;;1.27;;
53875;SDS011;39789;53.216;5.624;2023-02-19T08:38:31;4.20;;;1.77;;
53875;SDS011;39789;53.216;5.624;2023-02-19T08:41:02;3.83;;;1.40;;
53875;SDS011;39789;53.216;5.624;2023-02-19T08:43:28;2.10;;;1.45;;
53875;SDS011;39789;53.216;5.624;2023-02-19T08:45:54;2.63;;;1.75;;
53875;SDS011;39789;53.216;5.624;2023-02-19T08:48:19;3.30;;;1.52;;
53875;SDS011;39789;53.216;5.624;2023-02-19T08:50:51;3.70;;;1.42;;
53875;SDS011;39789;53.216;5.624;2023-02-19T08:53:18;1.30;;;1.20;;
53875;SDS011;39789;53.216;5.624;2023-02-19T08:55:43;1.42;;;1.30;;
53875;SDS011;39789;53.216;5.624;2023-02-19T08:58:09;2.15;;;1.30;;
53875;SDS011;39789;53.216;5.624;2023-02-19T09:00:34;1.27;;;1.15;;
53875;SDS011;39789;53.216;5.624;2023-02-19T09:03:00;1.45;;;1.08;;
53875;SDS011;39789;53.216;5.624;2023-02-19T09:05:25;2.70;;;1.10;;
53875;SDS011;39789;53.216;5.624;2023-02-19T09:07:51;0.90;;;0.80;;
53875;SDS011;39789;53.216;5.624;2023-02-19T09:10:17;2.50;;;0.82;;
53875;SDS011;39789;53.216;5.624;2023-02-19T09:12:42;2.05;;;1.00;;
53875;SDS011;39789;53.216;5.624;2023-02-19T09:15:08;1.10;;;1.00;;
53875;SDS011;39789;53.216;5.624;2023-02-19T09:17:34;2.55;;;1.08;;
53875;SDS011;39789;53.216;5.624;2023-02-19T09:20:00;2.13;;;1.60;;
53875;SDS011;39789;53.216;5.624;2023-02-19T09:22:25;2.65;;;1.02;;
53875;SDS011;39789;53.216;5.624;2023-02-19T09:24:51;2.70;;;1.30;;
53875;SDS011;39789;53.216;5.624;2023-02-19T09:27:17;1.65;;;0.93;;
53875;SDS011;39789;53.216;5.624;2023-02-19T09:29:44;0.90;;;0.85;;
53875;SDS011;39789;53.216;5.624;2023-02-19T09:32:10;2.97;;;1.00;;
53875;SDS011;39789;53.216;5.624;2023-02-19T09:34:36;2.60;;;1.00;;
53875;SDS011;39789;53.216;5.624;2023-02-19T09:37:03;3.63;;;1.23;;
53875;SDS011;39789;53.216;5.624;2023-02-19T09:39:29;2.20;;;1.20;;
53875;SDS011;39789;53.216;5.624;2023-02-19T09:42:00;1.50;;;0.98;;
53875;SDS011;39789;53.216;5.624;2023-02-19T09:44:34;3.05;;;1.50;;
53875;SDS011;39789;53.216;5.624;2023-02-19T09:47:04;2.17;;;1.20;;
53875;SDS011;39789;53.216;5.624;2023-02-19T09:49:37;2.05;;;1.00;;
53875;SDS011;39789;53.216;5.624;2023-02-19T09:52:05;1.45;;;0.90;;
53875;SDS011;39789;53.216;5.624;2023-02-19T09:54:42;1.85;;;1.10;;
53875;SDS011;39789;53.216;5.624;2023-02-19T09:57:13;1.08;;;0.80;;
53875;SDS011;39789;53.216;5.624;2023-02-19T09:59:42;2.15;;;0.82;;
53875;SDS011;39789;53.216;5.624;2023-02-19T10:02:11;1.52;;;0.98;;
53875;SDS011;39789;53.216;5.624;2023-02-19T10:04:42;2.60;;;0.65;;
53875;SDS011;39789;53.216;5.624;2023-02-19T10:07:10;3.20;;;0.90;;
53875;SDS011;39789;53.216;5.624;2023-02-19T10:09:59;2.22;;;1.08;;
53875;SDS011;39789;53.216;5.624;2023-02-19T10:12:45;1.88;;;0.80;;
53875;SDS011;39789;53.216;5.624;2023-02-19T10:15:18;3.35;;;0.98;;
53875;SDS011;39789;53.216;5.624;2023-02-19T10:17:50;1.80;;;0.98;;
53875;SDS011;39789;53.216;5.624;2023-02-19T10:20:17;0.88;;;0.80;;
53875;SDS011;39789;53.216;5.624;2023-02-19T10:22:46;0.85;;;0.65;;
53875;SDS011;39789;53.216;5.624;2023-02-19T10:25:13;1.27;;;1.00;;
53875;SDS011;39789;53.216;5.624;2023-02-19T10:27:40;2.40;;;0.82;;
53875;SDS011;39789;53.216;5.624;2023-02-19T10:30:08;1.42;;;0.98;;
53875;SDS011;39789;53.216;5.624;2023-02-19T10:33:02;4.60;;;1.77;;
53875;SDS011;39789;53.216;5.624;2023-02-19T10:35:27;5.50;;;1.20;;
53875;SDS011;39789;53.216;5.624;2023-02-19T10:37:54;5.18;;;1.15;;
53875;SDS011;39789;53.216;5.624;2023-02-19T10:40:24;2.83;;;1.10;;
53875;SDS011;39789;53.216;5.624;2023-02-19T10:42:58;1.63;;;1.10;;
53875;SDS011;39789;53.216;5.624;2023-02-19T10:45:44;1.80;;;0.90;;
53875;SDS011;39789;53.216;5.624;2023-02-19T10:48:27;3.65;;;0.90;;
53875;SDS011;39789;53.216;5.624;2023-02-19T10:50:57;3.05;;;0.82;;
53875;SDS011;39789;53.216;5.624;2023-02-19T10:53:37;7.25;;;1.20;;
53875;SDS011;39789;53.216;5.624;2023-02-19T10:56:15;6.68;;;1.38;;
53875;SDS011;39789;53.216;5.624;2023-02-19T10:58:48;3.95;;;1.05;;
53875;SDS011;39789;53.216;5.624;2023-02-19T11:01:15;4.72;;;1.20;;
53875;SDS011;39789;53.216;5.624;2023-02-19T11:03:44;2.83;;;1.15;;
53875;SDS011;39789;53.216;5.624;2023-02-19T11:06:14;4.93;;;1.42;;
53875;SDS011;39789;53.216;5.624;2023-02-19T11:08:55;1.88;;;0.88;;
53875;SDS011;39789;53.216;5.624;2023-02-19T11:11:56;4.07;;;1.10;;
53875;SDS011;39789;53.216;5.624;2023-02-19T11:14:20;4.80;;;0.77;;
53875;SDS011;39789;53.216;5.624;2023-02-19T11:16:54;3.63;;;1.00;;
53875;SDS011;39789;53.216;5.624;2023-02-19T11:19:38;6.03;;;1.30;;
53875;SDS011;39789;53.216;5.624;2023-02-19T11:24:50;3.17;;;1.55;;
53875;SDS011;39789;53.216;5.624;2023-02-19T11:27:18;3.75;;;1.20;;
53875;SDS011;39789;53.216;5.624;2023-02-19T11:29:46;2.00;;;0.85;;
53875;SDS011;39789;53.216;5.624;2023-02-19T11:34:50;2.53;;;1.23;;
53875;SDS011;39789;53.216;5.624;2023-02-19T11:37:17;3.63;;;1.20;;
53875;SDS011;39789;53.216;5.624;2023-02-19T11:39:47;8.02;;;1.33;;
53875;SDS011;39789;53.216;5.624;2023-02-19T11:51:00;3.67;;;1.30;;
53875;SDS011;39789;53.216;5.624;2023-02-19T11:53:17;4.60;;;1.17;;
53875;SDS011;39789;53.216;5.624;2023-02-19T11:56:20;4.85;;;1.13;;
53875;SDS011;39789;53.216;5.624;2023-02-19T12:02:01;4.40;;;1.05;;
53875;SDS011;39789;53.216;5.624;2023-02-19T12:04:45;5.65;;;1.10;;
53875;SDS011;39789;53.216;5.624;2023-02-19T12:12:50;3.63;;;1.30;;
53875;SDS011;39789;53.216;5.624;2023-02-19T12:28:56;3.78;;;1.40;;
53875;SDS011;39789;53.216;5.624;2023-02-19T12:31:39;7.43;;;1.20;;
53875;SDS011;39789;53.216;5.624;2023-02-19T12:45:29;5.07;;;1.00;;
53875;SDS011;39789;53.216;5.624;2023-02-19T12:50:32;4.57;;;1.50;;
53875;SDS011;39789;53.216;5.624;2023-02-19T12:53:04;6.45;;;1.50;;
53875;SDS011;39789;53.216;5.624;2023-02-19T12:55:43;6.28;;;1.30;;
53875;SDS011;39789;53.216;5.624;2023-02-19T12:58:12;3.22;;;1.38;;
53875;SDS011;39789;53.216;5.624;2023-02-19T13:00:51;3.78;;;1.23;;
53875;SDS011;39789;53.216;5.624;2023-02-19T13:03:27;3.58;;;0.93;;
53875;SDS011;39789;53.216;5.624;2023-02-19T13:06:10;5.93;;;1.70;;
53875;SDS011;39789;53.216;5.624;2023-02-19T13:09:06;3.85;;;1.48;;
53875;SDS011;39789;53.216;5.624;2023-02-19T13:11:39;4.88;;;1.02;;
53875;SDS011;39789;53.216;5.624;2023-02-19T13:16:47;6.72;;;1.20;;
53875;SDS011;39789;53.216;5.624;2023-02-19T13:19:18;6.25;;;1.33;;
53875;SDS011;39789;53.216;5.624;2023-02-19T13:21:43;7.38;;;1.58;;
53875;SDS011;39789;53.216;5.624;2023-02-19T13:24:35;4.30;;;1.45;;
53875;SDS011;39789;53.216;5.624;2023-02-19T13:35:12;6.18;;;1.23;;
53875;SDS011;39789;53.216;5.624;2023-02-19T13:37:48;3.92;;;1.20;;
53875;SDS011;39789;53.216;5.624;2023-02-19T13:40:34;3.90;;;1.08;;
53875;SDS011;39789;53.216;5.624;2023-02-19T13:43:04;3.38;;;1.27;;
53875;SDS011;39789;53.216;5.624;2023-02-19T13:45:41;4.75;;;2.00;;
53875;SDS011;39789;53.216;5.624;2023-02-19T13:48:13;4.63;;;1.35;;
53875;SDS011;39789;53.216;5.624;2023-02-19T13:50:49;5.30;;;1.15;;
53875;SDS011;39789;53.216;5.624;2023-02-19T13:58:55;5.63;;;1.10;;
53875;SDS011;39789;53.216;5.624;2023-02-19T14:02:04;3.92;;;1.27;;
53875;SDS011;39789;53.216;5.624;2023-02-19T14:07:18;5.50;;;1.27;;
53875;SDS011;39789;53.216;5.624;2023-02-19T14:14:39;6.05;;;1.70;;
53875;SDS011;39789;53.216;5.624;2023-02-19T14:27:48;2.80;;;1.40;;
53875;SDS011;39789;53.216;5.624;2023-02-19T14:30:16;5.28;;;1.30;;
53875;SDS011;39789;53.216;5.624;2023-02-19T14:32:42;3.13;;;0.98;;
53875;SDS011;39789;53.216;5.624;2023-02-19T14:35:16;5.13;;;1.30;;
53875;SDS011;39789;53.216;5.624;2023-02-19T14:37:43;4.28;;;1.60;;
53875;SDS011;39789;53.216;5.624;2023-02-19T14:40:16;8.55;;;2.00;;
53875;SDS011;39789;53.216;5.624;2023-02-19T14:42:46;4.63;;;1.40;;
53875;SDS011;39789;53.216;5.624;2023-02-19T14:45:13;4.45;;;1.40;;
53875;SDS011;39789;53.216;5.624;2023-02-19T14:47:40;5.07;;;1.48;;
53875;SDS011;39789;53.216;5.624;2023-02-19T14:50:11;3.65;;;1.40;;
53875;SDS011;39789;53.216;5.624;2023-02-19T14:52:42;8.98;;;7.32;;
53875;SDS011;39789;53.216;5.624;2023-02-19T14:55:20;5.95;;;1.90;;
53875;SDS011;39789;53.216;5.624;2023-02-19T14:57:50;3.22;;;1.25;;
53875;SDS011;39789;53.216;5.624;2023-02-19T15:02:47;7.85;;;3.40;;
53875;SDS011;39789;53.216;5.624;2023-02-19T15:05:15;9.60;;;2.65;;
53875;SDS011;39789;53.216;5.624;2023-02-19T15:07:52;5.80;;;3.60;;
53875;SDS011;39789;53.216;5.624;2023-02-19T15:10:20;6.65;;;3.10;;
53875;SDS011;39789;53.216;5.624;2023-02-19T15:12:50;4.32;;;1.50;;
53875;SDS011;39789;53.216;5.624;2023-02-19T15:15:22;5.40;;;1.27;;
53875;SDS011;39789;53.216;5.624;2023-02-19T15:17:50;4.13;;;1.42;;
53875;SDS011;39789;53.216;5.624;2023-02-19T15:20:18;2.97;;;1.10;;
53875;SDS011;39789;53.216;5.624;2023-02-19T15:22:46;2.50;;;1.33;;
53875;SDS011;39789;53.216;5.624;2023-02-19T15:25:16;6.25;;;1.42;;
53875;SDS011;39789;53.216;5.624;2023-02-19T15:27:46;3.05;;;1.52;;
53875;SDS011;39789;53.216;5.624;2023-02-19T15:30:23;7.05;;;1.60;;
53875;SDS011;39789;53.216;5.624;2023-02-19T15:32:57;5.63;;;1.92;;
53875;SDS011;39789;53.216;5.624;2023-02-19T15:35:24;4.93;;;1.70;;
53875;SDS011;39789;53.216;5.624;2023-02-19T15:37:52;6.65;;;1.40;;
53875;SDS011;39789;53.216;5.624;2023-02-19T15:40:19;6.65;;;1.63;;
53875;SDS011;39789;53.216;5.624;2023-02-19T15:42:50;6.18;;;1.60;;
53875;SDS011;39789;53.216;5.624;2023-02-19T15:45:20;4.47;;;1.85;;
53875;SDS011;39789;53.216;5.624;2023-02-19T15:50:33;6.65;;;1.83;;
53875;SDS011;39789;53.216;5.624;2023-02-19T15:53:07;7.10;;;2.08;;
53875;SDS011;39789;53.216;5.624;2023-02-19T15:58:30;7.18;;;1.27;;
53875;SDS011;39789;53.216;5.624;2023-02-19T16:01:15;7.82;;;1.38;;
53875;SDS011;39789;53.216;5.624;2023-02-19T16:03:50;5.43;;;1.50;;
53875;SDS011;39789;53.216;5.624;2023-02-19T16:06:20;5.25;;;3.10;;
53875;SDS011;39789;53.216;5.624;2023-02-19T16:08:59;6.47;;;1.75;;
53875;SDS011;39789;53.216;5.624;2023-02-19T16:11:48;5.32;;;1.42;;
53875;SDS011;39789;53.216;5.624;2023-02-19T16:14:23;6.63;;;2.13;;
53875;SDS011;39789;53.216;5.624;2023-02-19T16:19:24;4.50;;;2.03;;
53875;SDS011;39789;53.216;5.624;2023-02-19T16:21:52;10.77;;;3.10;;
53875;SDS011;39789;53.216;5.624;2023-02-19T16:24:24;7.32;;;2.95;;
53875;SDS011;39789;53.216;5.624;2023-02-19T16:26:52;5.72;;;2.70;;
53875;SDS011;39789;53.216;5.624;2023-02-19T16:29:23;7.15;;;3.30;;
53875;SDS011;39789;53.216;5.624;2023-02-19T16:31:53;4.88;;;2.30;;
53875;SDS011;39789;53.216;5.624;2023-02-19T16:34:31;6.57;;;2.00;;
53875;SDS011;39789;53.216;5.624;2023-02-19T16:37:04;7.60;;;2.15;;
53875;SDS011;39789;53.216;5.624;2023-02-19T16:42:32;3.67;;;1.85;;
53875;SDS011;39789;53.216;5.624;2023-02-19T16:44:58;2.67;;;1.58;;
53875;SDS011;39789;53.216;5.624;2023-02-19T16:47:25;6.60;;;2.75;;
53875;SDS011;39789;53.216;5.624;2023-02-19T16:49:59;3.70;;;1.77;;
53875;SDS011;39789;53.216;5.624;2023-02-19T16:52:26;6.47;;;2.88;;
53875;SDS011;39789;53.216;5.624;2023-02-19T16:54:52;3.33;;;1.48;;
53875;SDS011;39789;53.216;5.624;2023-02-19T16:57:17;5.93;;;1.55;;
53875;SDS011;39789;53.216;5.624;2023-02-19T16:59:44;5.13;;;1.88;;